Airfield :
LOGIN :

Register | Disclaimer

   EN    FR    IT 

 










Legend :    VFR   Marginal VFR   IFR   Intensive IFR   Very Intensive IFR
Visi :
Ceiling :
>= 8 km
>= 3000ft
5 to 8 km
1000 to 3000 ft
1500m to 5 km
500 to 1000 ft
800 to 1500m
200 to 500 ft
< 800m
< 200 ft
Symbols :   Thunderstorms  Fog  Heavy snow  Heavy precipitations  Wind > 20 kt
SIGMETs :     Misc.  Thunderstorms  Icing  Turbulence  Mountain Waves  Volcanic Ashes







- Airport Elevation : 41 ft


LIRE - Pratica di Mare Air Base Pomezia

CURRENT METAR :
  • 171855Z 35001KT CAVOK 25/24 Q1015 RMK FEW FEW100 VIS MIN 9999 WIND THR13 05001KT WIND THR31 35002KT BLU

EXPIRED METARs :
  • 171755Z 30004KT CAVOK 26/23 Q1015 RMK FEW FEW210 VIS MIN 9999 WIND THR13 31003KT WIND THR31 29004KT BLU
  • 171655Z 26007KT CAVOK 27/22 Q1015 RMK FEW FEW220 VIS MIN 9999 WIND THR13 28006KT WIND THR31 26008KT BLU

TAF TAF LIRE
Valid from the 17 at 15:00 until the 18 at 00:00 UTC


171400Z 1715/1724 25008KT CAVOK
No reported NOTAMs for that airfield.



MET'MAP, your aeronautical weather chart ! - Copyright ORBIFLY December 2007 - Disclaimer

ORBIFLY MET'MAP TEAM :

Programming & Development : Alexandra Zaïnal
Concept & Development : Baudouin d'Aumeries
Co-Development & Prog : Marc-Olivier Méhu
Technical & hardware support : Manuel Goepfert

Contact : metmap@orbifly.com




SOURCES & CREDITS :

   NOAA